sensor_id;sensor_type;location;lat;lon;timestamp;P1;durP1;ratioP1;P2;durP2;ratioP2
16312;SDS011;8265;52.622;13.296;2023-08-21T00:00:32;2.60;;;2.40;;
16312;SDS011;8265;52.622;13.296;2023-08-21T00:05:53;8.50;;;4.30;;
16312;SDS011;8265;52.622;13.296;2023-08-21T00:11:14;7.90;;;4.50;;
16312;SDS011;8265;52.622;13.296;2023-08-21T00:16:35;7.90;;;4.50;;
16312;SDS011;8265;52.622;13.296;2023-08-21T00:21:56;3.60;;;3.30;;
16312;SDS011;8265;52.622;13.296;2023-08-21T00:27:17;3.60;;;3.30;;
16312;SDS011;8265;52.622;13.296;2023-08-21T00:32:38;8.20;;;4.40;;
16312;SDS011;8265;52.622;13.296;2023-08-21T00:37:59;4.10;;;3.00;;
16312;SDS011;8265;52.622;13.296;2023-08-21T00:43:20;7.50;;;3.90;;
16312;SDS011;8265;52.622;13.296;2023-08-21T00:48:41;6.30;;;4.40;;
16312;SDS011;8265;52.622;13.296;2023-08-21T00:54:02;4.60;;;3.40;;
16312;SDS011;8265;52.622;13.296;2023-08-21T00:59:23;4.70;;;3.00;;
16312;SDS011;8265;52.622;13.296;2023-08-21T01:04:44;7.30;;;5.30;;
16312;SDS011;8265;52.622;13.296;2023-08-21T01:10:09;8.10;;;5.90;;
16312;SDS011;8265;52.622;13.296;2023-08-21T01:15:26;9.90;;;5.80;;
16312;SDS011;8265;52.622;13.296;2023-08-21T01:20:47;7.20;;;5.70;;
16312;SDS011;8265;52.622;13.296;2023-08-21T01:26:08;7.20;;;5.70;;
16312;SDS011;8265;52.622;13.296;2023-08-21T01:31:31;5.90;;;4.00;;
16312;SDS011;8265;52.622;13.296;2023-08-21T01:36:50;5.90;;;4.00;;
16312;SDS011;8265;52.622;13.296;2023-08-21T01:42:11;12.20;;;4.20;;
16312;SDS011;8265;52.622;13.296;2023-08-21T01:47:32;12.20;;;4.20;;
16312;SDS011;8265;52.622;13.296;2023-08-21T01:52:53;6.20;;;4.00;;
16312;SDS011;8265;52.622;13.296;2023-08-21T01:58:14;6.20;;;4.00;;
16312;SDS011;8265;52.622;13.296;2023-08-21T02:03:35;20.80;;;3.90;;
16312;SDS011;8265;52.622;13.296;2023-08-21T02:08:56;20.80;;;3.90;;
16312;SDS011;8265;52.622;13.296;2023-08-21T02:14:17;7.30;;;5.70;;
16312;SDS011;8265;52.622;13.296;2023-08-21T02:19:38;8.30;;;5.80;;
16312;SDS011;8265;52.622;13.296;2023-08-21T02:24:59;8.30;;;5.80;;
16312;SDS011;8265;52.622;13.296;2023-08-21T02:30:20;7.70;;;5.80;;
16312;SDS011;8265;52.622;13.296;2023-08-21T02:35:41;7.70;;;5.80;;
16312;SDS011;8265;52.622;13.296;2023-08-21T02:41:02;6.10;;;4.70;;
16312;SDS011;8265;52.622;13.296;2023-08-21T02:46:23;6.10;;;4.70;;
16312;SDS011;8265;52.622;13.296;2023-08-21T02:51:44;6.50;;;4.80;;
16312;SDS011;8265;52.622;13.296;2023-08-21T02:57:05;6.40;;;4.50;;
16312;SDS011;8265;52.622;13.296;2023-08-21T03:02:26;7.00;;;5.10;;
16312;SDS011;8265;52.622;13.296;2023-08-21T03:07:47;5.90;;;5.30;;
16312;SDS011;8265;52.622;13.296;2023-08-21T03:13:08;5.90;;;5.30;;
16312;SDS011;8265;52.622;13.296;2023-08-21T03:18:29;5.10;;;3.80;;
16312;SDS011;8265;52.622;13.296;2023-08-21T03:23:57;5.10;;;3.80;;
16312;SDS011;8265;52.622;13.296;2023-08-21T03:29:11;8.10;;;4.80;;
16312;SDS011;8265;52.622;13.296;2023-08-21T03:34:31;4.90;;;3.80;;
16312;SDS011;8265;52.622;13.296;2023-08-21T03:39:53;4.90;;;3.80;;
16312;SDS011;8265;52.622;13.296;2023-08-21T03:45:14;5.80;;;4.60;;
16312;SDS011;8265;52.622;13.296;2023-08-21T03:50:35;5.80;;;4.60;;
16312;SDS011;8265;52.622;13.296;2023-08-21T03:55:56;6.80;;;3.70;;
16312;SDS011;8265;52.622;13.296;2023-08-21T04:01:16;6.40;;;3.70;;
16312;SDS011;8265;52.622;13.296;2023-08-21T04:06:38;6.90;;;4.70;;
16312;SDS011;8265;52.622;13.296;2023-08-21T04:11:58;5.70;;;5.00;;
16312;SDS011;8265;52.622;13.296;2023-08-21T04:17:20;7.70;;;5.60;;
16312;SDS011;8265;52.622;13.296;2023-08-21T04:22:40;5.90;;;4.30;;
16312;SDS011;8265;52.622;13.296;2023-08-21T04:28:01;5.80;;;4.40;;
16312;SDS011;8265;52.622;13.296;2023-08-21T04:33:23;5.70;;;4.00;;
16312;SDS011;8265;52.622;13.296;2023-08-21T04:38:43;13.10;;;4.80;;
16312;SDS011;8265;52.622;13.296;2023-08-21T04:44:04;12.00;;;6.30;;
16312;SDS011;8265;52.622;13.296;2023-08-21T04:49:25;7.80;;;4.70;;
16312;SDS011;8265;52.622;13.296;2023-08-21T04:54:49;4.80;;;3.30;;
16312;SDS011;8265;52.622;13.296;2023-08-21T05:00:07;10.70;;;4.80;;
16312;SDS011;8265;52.622;13.296;2023-08-21T05:05:28;10.70;;;4.80;;
16312;SDS011;8265;52.622;13.296;2023-08-21T05:10:56;3.80;;;2.80;;
16312;SDS011;8265;52.622;13.296;2023-08-21T05:16:10;9.60;;;4.70;;
16312;SDS011;8265;52.622;13.296;2023-08-21T05:21:31;9.60;;;4.70;;
16312;SDS011;8265;52.622;13.296;2023-08-21T05:26:52;4.70;;;3.80;;
16312;SDS011;8265;52.622;13.296;2023-08-21T05:32:13;8.10;;;4.70;;
16312;SDS011;8265;52.622;13.296;2023-08-21T05:37:34;8.10;;;4.70;;
16312;SDS011;8265;52.622;13.296;2023-08-21T05:42:55;3.60;;;2.90;;
16312;SDS011;8265;52.622;13.296;2023-08-21T05:48:16;3.60;;;2.90;;
16312;SDS011;8265;52.622;13.296;2023-08-21T05:53:37;6.30;;;4.20;;
16312;SDS011;8265;52.622;13.296;2023-08-21T05:58:58;7.40;;;4.20;;
16312;SDS011;8265;52.622;13.296;2023-08-21T06:04:19;7.40;;;4.20;;
16312;SDS011;8265;52.622;13.296;2023-08-21T06:09:40;4.00;;;3.20;;
16312;SDS011;8265;52.622;13.296;2023-08-21T06:15:01;4.00;;;3.20;;
16312;SDS011;8265;52.622;13.296;2023-08-21T06:20:22;5.90;;;3.80;;
16312;SDS011;8265;52.622;13.296;2023-08-21T06:25:43;6.40;;;5.40;;
16312;SDS011;8265;52.622;13.296;2023-08-21T06:31:04;6.40;;;5.40;;
16312;SDS011;8265;52.622;13.296;2023-08-21T06:36:25;7.40;;;4.60;;
16312;SDS011;8265;52.622;13.296;2023-08-21T06:41:46;7.70;;;4.10;;
16312;SDS011;8265;52.622;13.296;2023-08-21T06:47:07;5.70;;;4.40;;
16312;SDS011;8265;52.622;13.296;2023-08-21T06:52:28;7.40;;;5.30;;
16312;SDS011;8265;52.622;13.296;2023-08-21T06:57:49;5.10;;;4.10;;
16312;SDS011;8265;52.622;13.296;2023-08-21T07:03:10;8.10;;;5.30;;
16312;SDS011;8265;52.622;13.296;2023-08-21T07:08:31;5.20;;;4.10;;
16312;SDS011;8265;52.622;13.296;2023-08-21T07:13:52;7.20;;;5.10;;
16312;SDS011;8265;52.622;13.296;2023-08-21T07:19:13;6.80;;;4.20;;
16312;SDS011;8265;52.622;13.296;2023-08-21T07:24:34;5.40;;;3.20;;
16312;SDS011;8265;52.622;13.296;2023-08-21T07:29:55;4.70;;;3.80;;
16312;SDS011;8265;52.622;13.296;2023-08-21T07:35:16;4.30;;;3.90;;
16312;SDS011;8265;52.622;13.296;2023-08-21T07:40:37;3.30;;;2.40;;
16312;SDS011;8265;52.622;13.296;2023-08-21T07:46:01;6.80;;;4.40;;
16312;SDS011;8265;52.622;13.296;2023-08-21T07:51:19;3.80;;;2.10;;
16312;SDS011;8265;52.622;13.296;2023-08-21T07:56:40;5.40;;;2.40;;
16312;SDS011;8265;52.622;13.296;2023-08-21T08:02:01;3.50;;;2.00;;
16312;SDS011;8265;52.622;13.296;2023-08-21T08:07:22;10.70;;;2.70;;
16312;SDS011;8265;52.622;13.296;2023-08-21T08:12:43;1.40;;;1.30;;
16312;SDS011;8265;52.622;13.296;2023-08-21T08:18:04;1.60;;;0.90;;
16312;SDS011;8265;52.622;13.296;2023-08-21T08:23:25;1.30;;;1.10;;
16312;SDS011;8265;52.622;13.296;2023-08-21T08:28:46;1.30;;;0.90;;
16312;SDS011;8265;52.622;13.296;2023-08-21T08:34:07;0.80;;;0.80;;
16312;SDS011;8265;52.622;13.296;2023-08-21T08:39:28;2.70;;;0.80;;
16312;SDS011;8265;52.622;13.296;2023-08-21T08:44:49;1.00;;;0.70;;
16312;SDS011;8265;52.622;13.296;2023-08-21T08:50:10;0.70;;;0.60;;
16312;SDS011;8265;52.622;13.296;2023-08-21T08:55:31;0.50;;;0.50;;
16312;SDS011;8265;52.622;13.296;2023-08-21T09:00:52;0.40;;;0.40;;
16312;SDS011;8265;52.622;13.296;2023-08-21T09:06:13;3.40;;;0.70;;
16312;SDS011;8265;52.622;13.296;2023-08-21T09:11:34;1.70;;;0.90;;
16312;SDS011;8265;52.622;13.296;2023-08-21T09:16:59;0.80;;;0.80;;
16312;SDS011;8265;52.622;13.296;2023-08-21T09:22:17;1.00;;;0.90;;
16312;SDS011;8265;52.622;13.296;2023-08-21T09:27:38;0.90;;;0.90;;
16312;SDS011;8265;52.622;13.296;2023-08-21T09:32:58;1.00;;;0.90;;
16312;SDS011;8265;52.622;13.296;2023-08-21T09:38:19;0.80;;;0.70;;
16312;SDS011;8265;52.622;13.296;2023-08-21T09:43:41;0.90;;;0.70;;
16312;SDS011;8265;52.622;13.296;2023-08-21T09:49:01;0.50;;;0.50;;
16312;SDS011;8265;52.622;13.296;2023-08-21T09:54:22;0.50;;;0.50;;
16312;SDS011;8265;52.622;13.296;2023-08-21T09:59:43;3.00;;;2.70;;
16312;SDS011;8265;52.622;13.296;2023-08-21T10:05:04;2.90;;;1.10;;
16312;SDS011;8265;52.622;13.296;2023-08-21T10:10:25;2.50;;;0.70;;
16312;SDS011;8265;52.622;13.296;2023-08-21T10:15:46;0.60;;;0.50;;
16312;SDS011;8265;52.622;13.296;2023-08-21T10:21:25;0.90;;;0.90;;
16312;SDS011;8265;52.622;13.296;2023-08-21T10:26:28;1.30;;;0.70;;
16312;SDS011;8265;52.622;13.296;2023-08-21T10:31:57;0.80;;;0.80;;
16312;SDS011;8265;52.622;13.296;2023-08-21T10:37:10;0.90;;;0.90;;
16312;SDS011;8265;52.622;13.296;2023-08-21T10:42:40;0.90;;;0.90;;
16312;SDS011;8265;52.622;13.296;2023-08-21T10:47:52;1.70;;;1.10;;
16312;SDS011;8265;52.622;13.296;2023-08-21T10:53:13;1.20;;;1.10;;
16312;SDS011;8265;52.622;13.296;2023-08-21T10:58:35;1.20;;;1.10;;
16312;SDS011;8265;52.622;13.296;2023-08-21T11:03:55;2.00;;;0.40;;
16312;SDS011;8265;52.622;13.296;2023-08-21T11:09:16;1.40;;;0.90;;
16312;SDS011;8265;52.622;13.296;2023-08-21T11:14:37;0.50;;;0.50;;
16312;SDS011;8265;52.622;13.296;2023-08-21T11:20:00;0.30;;;0.30;;
16312;SDS011;8265;52.622;13.296;2023-08-21T11:25:19;0.70;;;0.70;;
16312;SDS011;8265;52.622;13.296;2023-08-21T11:30:40;0.40;;;0.40;;
16312;SDS011;8265;52.622;13.296;2023-08-21T11:36:01;0.60;;;0.60;;
16312;SDS011;8265;52.622;13.296;2023-08-21T11:41:22;0.60;;;0.60;;
16312;SDS011;8265;52.622;13.296;2023-08-21T11:46:43;1.00;;;0.90;;
16312;SDS011;8265;52.622;13.296;2023-08-21T11:52:04;1.20;;;0.80;;
16312;SDS011;8265;52.622;13.296;2023-08-21T11:57:25;1.50;;;1.00;;
16312;SDS011;8265;52.622;13.296;2023-08-21T12:02:55;0.70;;;0.70;;
16312;SDS011;8265;52.622;13.296;2023-08-21T12:08:07;0.60;;;0.60;;
16312;SDS011;8265;52.622;13.296;2023-08-21T12:13:28;0.40;;;0.30;;
16312;SDS011;8265;52.622;13.296;2023-08-21T12:18:49;1.10;;;1.00;;
16312;SDS011;8265;52.622;13.296;2023-08-21T12:24:10;2.20;;;0.70;;
16312;SDS011;8265;52.622;13.296;2023-08-21T12:29:31;0.90;;;0.60;;
16312;SDS011;8265;52.622;13.296;2023-08-21T12:34:52;1.80;;;0.70;;
16312;SDS011;8265;52.622;13.296;2023-08-21T12:40:13;0.80;;;0.70;;
16312;SDS011;8265;52.622;13.296;2023-08-21T12:45:35;2.00;;;0.70;;
16312;SDS011;8265;52.622;13.296;2023-08-21T12:50:55;0.50;;;0.50;;
16312;SDS011;8265;52.622;13.296;2023-08-21T12:56:16;1.80;;;1.00;;
16312;SDS011;8265;52.622;13.296;2023-08-21T13:01:37;1.20;;;0.50;;
16312;SDS011;8265;52.622;13.296;2023-08-21T13:06:58;1.10;;;0.90;;
16312;SDS011;8265;52.622;13.296;2023-08-21T13:12:19;4.70;;;1.00;;
16312;SDS011;8265;52.622;13.296;2023-08-21T13:17:40;1.30;;;0.50;;
16312;SDS011;8265;52.622;13.296;2023-08-21T13:23:00;0.70;;;0.70;;
16312;SDS011;8265;52.622;13.296;2023-08-21T13:28:22;0.50;;;0.50;;
16312;SDS011;8265;52.622;13.296;2023-08-21T13:33:46;2.00;;;0.70;;
16312;SDS011;8265;52.622;13.296;2023-08-21T13:39:04;6.60;;;1.30;;
16312;SDS011;8265;52.622;13.296;2023-08-21T13:44:25;4.30;;;0.90;;
16312;SDS011;8265;52.622;13.296;2023-08-21T13:49:46;1.60;;;1.00;;
16312;SDS011;8265;52.622;13.296;2023-08-21T13:55:07;0.50;;;0.50;;
16312;SDS011;8265;52.622;13.296;2023-08-21T14:00:28;0.80;;;0.70;;
16312;SDS011;8265;52.622;13.296;2023-08-21T14:05:49;0.40;;;0.30;;
16312;SDS011;8265;52.622;13.296;2023-08-21T14:11:10;1.10;;;0.70;;
16312;SDS011;8265;52.622;13.296;2023-08-21T14:16:31;0.70;;;0.50;;
16312;SDS011;8265;52.622;13.296;2023-08-21T14:21:52;1.40;;;0.50;;
16312;SDS011;8265;52.622;13.296;2023-08-21T14:27:13;0.40;;;0.40;;
16312;SDS011;8265;52.622;13.296;2023-08-21T14:32:34;0.90;;;0.50;;
16312;SDS011;8265;52.622;13.296;2023-08-21T14:37:55;0.10;;;0.10;;
16312;SDS011;8265;52.622;13.296;2023-08-21T14:43:16;3.80;;;1.60;;
16312;SDS011;8265;52.622;13.296;2023-08-21T14:48:37;0.60;;;0.60;;
16312;SDS011;8265;52.622;13.296;2023-08-21T14:53:58;0.60;;;0.60;;
16312;SDS011;8265;52.622;13.296;2023-08-21T14:59:18;0.80;;;0.50;;
16312;SDS011;8265;52.622;13.296;2023-08-21T15:04:39;0.40;;;0.40;;
16312;SDS011;8265;52.622;13.296;2023-08-21T15:10:01;0.40;;;0.40;;
16312;SDS011;8265;52.622;13.296;2023-08-21T15:15:22;2.30;;;0.80;;
16312;SDS011;8265;52.622;13.296;2023-08-21T15:20:43;0.40;;;0.40;;
16312;SDS011;8265;52.622;13.296;2023-08-21T15:26:03;6.90;;;0.90;;
16312;SDS011;8265;52.622;13.296;2023-08-21T15:31:24;0.50;;;0.40;;
16312;SDS011;8265;52.622;13.296;2023-08-21T15:36:45;0.60;;;0.60;;
16312;SDS011;8265;52.622;13.296;2023-08-21T15:42:07;1.00;;;0.40;;
16312;SDS011;8265;52.622;13.296;2023-08-21T15:47:28;0.70;;;0.70;;
16312;SDS011;8265;52.622;13.296;2023-08-21T15:52:49;0.50;;;0.50;;
16312;SDS011;8265;52.622;13.296;2023-08-21T15:58:10;0.60;;;0.60;;
16312;SDS011;8265;52.622;13.296;2023-08-21T16:03:31;1.10;;;0.50;;
16312;SDS011;8265;52.622;13.296;2023-08-21T16:08:52;0.30;;;0.30;;
16312;SDS011;8265;52.622;13.296;2023-08-21T16:14:13;0.20;;;0.20;;
16312;SDS011;8265;52.622;13.296;2023-08-21T16:19:34;1.20;;;0.60;;
16312;SDS011;8265;52.622;13.296;2023-08-21T16:24:54;1.80;;;0.80;;
16312;SDS011;8265;52.622;13.296;2023-08-21T16:30:16;0.40;;;0.40;;
16312;SDS011;8265;52.622;13.296;2023-08-21T16:35:37;6.60;;;0.80;;
16312;SDS011;8265;52.622;13.296;2023-08-21T16:40:58;1.50;;;0.70;;
16312;SDS011;8265;52.622;13.296;2023-08-21T16:46:18;3.60;;;0.80;;
16312;SDS011;8265;52.622;13.296;2023-08-21T16:51:39;0.60;;;0.50;;
16312;SDS011;8265;52.622;13.296;2023-08-21T16:57:00;1.00;;;0.70;;
16312;SDS011;8265;52.622;13.296;2023-08-21T17:02:21;1.50;;;0.80;;
16312;SDS011;8265;52.622;13.296;2023-08-21T17:07:42;4.40;;;1.00;;
16312;SDS011;8265;52.622;13.296;2023-08-21T17:13:03;0.70;;;0.70;;
16312;SDS011;8265;52.622;13.296;2023-08-21T17:18:25;0.40;;;0.40;;
16312;SDS011;8265;52.622;13.296;2023-08-21T17:23:45;2.10;;;0.60;;
16312;SDS011;8265;52.622;13.296;2023-08-21T17:29:06;2.40;;;0.60;;
16312;SDS011;8265;52.622;13.296;2023-08-21T17:34:27;2.30;;;0.80;;
16312;SDS011;8265;52.622;13.296;2023-08-21T17:39:48;5.10;;;0.80;;
16312;SDS011;8265;52.622;13.296;2023-08-21T17:45:09;0.20;;;0.20;;
16312;SDS011;8265;52.622;13.296;2023-08-21T17:50:30;0.60;;;0.60;;
16312;SDS011;8265;52.622;13.296;2023-08-21T17:55:51;0.30;;;0.30;;
16312;SDS011;8265;52.622;13.296;2023-08-21T18:01:12;0.90;;;0.90;;
16312;SDS011;8265;52.622;13.296;2023-08-21T18:06:33;0.80;;;0.80;;
16312;SDS011;8265;52.622;13.296;2023-08-21T18:11:54;0.70;;;0.70;;
16312;SDS011;8265;52.622;13.296;2023-08-21T18:17:15;0.50;;;0.50;;
16312;SDS011;8265;52.622;13.296;2023-08-21T18:22:36;0.80;;;0.80;;
16312;SDS011;8265;52.622;13.296;2023-08-21T18:27:57;0.50;;;0.50;;
16312;SDS011;8265;52.622;13.296;2023-08-21T18:33:18;0.90;;;0.90;;
16312;SDS011;8265;52.622;13.296;2023-08-21T18:38:39;0.70;;;0.70;;
16312;SDS011;8265;52.622;13.296;2023-08-21T18:44:00;6.20;;;0.60;;
16312;SDS011;8265;52.622;13.296;2023-08-21T18:49:21;1.30;;;0.90;;
16312;SDS011;8265;52.622;13.296;2023-08-21T18:54:42;1.30;;;0.90;;
16312;SDS011;8265;52.622;13.296;2023-08-21T19:00:03;4.40;;;1.10;;
16312;SDS011;8265;52.622;13.296;2023-08-21T19:05:24;0.40;;;0.40;;
16312;SDS011;8265;52.622;13.296;2023-08-21T19:10:45;0.40;;;0.40;;
16312;SDS011;8265;52.622;13.296;2023-08-21T19:16:06;2.10;;;0.80;;
16312;SDS011;8265;52.622;13.296;2023-08-21T19:21:27;2.10;;;0.80;;
16312;SDS011;8265;52.622;13.296;2023-08-21T19:26:48;2.20;;;1.10;;
16312;SDS011;8265;52.622;13.296;2023-08-21T19:32:09;2.20;;;1.10;;
16312;SDS011;8265;52.622;13.296;2023-08-21T19:37:31;0.80;;;0.70;;
16312;SDS011;8265;52.622;13.296;2023-08-21T19:42:51;5.90;;;1.00;;
16312;SDS011;8265;52.622;13.296;2023-08-21T19:48:12;1.10;;;0.90;;
16312;SDS011;8265;52.622;13.296;2023-08-21T19:53:33;1.60;;;0.70;;
16312;SDS011;8265;52.622;13.296;2023-08-21T19:58:54;0.90;;;0.90;;
16312;SDS011;8265;52.622;13.296;2023-08-21T20:04:15;2.00;;;1.00;;
16312;SDS011;8265;52.622;13.296;2023-08-21T20:09:39;1.00;;;1.00;;
16312;SDS011;8265;52.622;13.296;2023-08-21T20:14:57;0.80;;;0.80;;
16312;SDS011;8265;52.622;13.296;2023-08-21T20:20:18;1.10;;;1.00;;
16312;SDS011;8265;52.622;13.296;2023-08-21T20:25:41;5.20;;;1.30;;
16312;SDS011;8265;52.622;13.296;2023-08-21T20:31:00;1.00;;;0.90;;
16312;SDS011;8265;52.622;13.296;2023-08-21T20:36:21;10.60;;;1.80;;
16312;SDS011;8265;52.622;13.296;2023-08-21T20:41:42;2.10;;;1.50;;
16312;SDS011;8265;52.622;13.296;2023-08-21T20:47:03;1.40;;;1.30;;
16312;SDS011;8265;52.622;13.296;2023-08-21T20:52:24;0.50;;;0.50;;
16312;SDS011;8265;52.622;13.296;2023-08-21T20:57:45;1.30;;;1.20;;
16312;SDS011;8265;52.622;13.296;2023-08-21T21:03:06;2.10;;;1.10;;
16312;SDS011;8265;52.622;13.296;2023-08-21T21:08:27;3.00;;;1.20;;
16312;SDS011;8265;52.622;13.296;2023-08-21T21:13:48;1.40;;;1.30;;
16312;SDS011;8265;52.622;13.296;2023-08-21T21:19:09;1.20;;;1.10;;
16312;SDS011;8265;52.622;13.296;2023-08-21T21:24:30;1.20;;;1.00;;
16312;SDS011;8265;52.622;13.296;2023-08-21T21:29:51;0.80;;;0.80;;
16312;SDS011;8265;52.622;13.296;2023-08-21T21:35:12;1.20;;;1.10;;
16312;SDS011;8265;52.622;13.296;2023-08-21T21:40:33;0.90;;;0.90;;
16312;SDS011;8265;52.622;13.296;2023-08-21T21:45:55;4.30;;;1.80;;
16312;SDS011;8265;52.622;13.296;2023-08-21T21:51:15;1.70;;;1.20;;
16312;SDS011;8265;52.622;13.296;2023-08-21T21:56:37;1.30;;;1.20;;
16312;SDS011;8265;52.622;13.296;2023-08-21T22:01:57;0.90;;;0.70;;
16312;SDS011;8265;52.622;13.296;2023-08-21T22:07:18;1.00;;;0.90;;
16312;SDS011;8265;52.622;13.296;2023-08-21T22:12:39;1.70;;;1.40;;
16312;SDS011;8265;52.622;13.296;2023-08-21T22:18:00;1.90;;;0.90;;
16312;SDS011;8265;52.622;13.296;2023-08-21T22:23:21;0.50;;;0.50;;
16312;SDS011;8265;52.622;13.296;2023-08-21T22:28:42;2.30;;;1.00;;
16312;SDS011;8265;52.622;13.296;2023-08-21T22:34:03;8.10;;;2.20;;
16312;SDS011;8265;52.622;13.296;2023-08-21T22:39:24;0.50;;;0.50;;
16312;SDS011;8265;52.622;13.296;2023-08-21T22:44:45;0.80;;;0.80;;
16312;SDS011;8265;52.622;13.296;2023-08-21T22:50:06;4.90;;;1.70;;
16312;SDS011;8265;52.622;13.296;2023-08-21T22:55:27;1.30;;;1.20;;
16312;SDS011;8265;52.622;13.296;2023-08-21T23:00:48;3.10;;;1.30;;
16312;SDS011;8265;52.622;13.296;2023-08-21T23:06:09;8.50;;;1.30;;
16312;SDS011;8265;52.622;13.296;2023-08-21T23:11:30;8.50;;;1.30;;
16312;SDS011;8265;52.622;13.296;2023-08-21T23:16:51;1.10;;;1.00;;
16312;SDS011;8265;52.622;13.296;2023-08-21T23:22:12;1.30;;;0.80;;
16312;SDS011;8265;52.622;13.296;2023-08-21T23:27:33;1.60;;;1.20;;
16312;SDS011;8265;52.622;13.296;2023-08-21T23:32:54;0.90;;;0.90;;
16312;SDS011;8265;52.622;13.296;2023-08-21T23:38:15;1.10;;;0.70;;
16312;SDS011;8265;52.622;13.296;2023-08-21T23:43:36;2.30;;;1.70;;
16312;SDS011;8265;52.622;13.296;2023-08-21T23:48:57;2.00;;;1.20;;
16312;SDS011;8265;52.622;13.296;2023-08-21T23:54:18;4.20;;;1.90;;
16312;SDS011;8265;52.622;13.296;2023-08-21T23:59:39;1.20;;;1.10;;
